KDHT/DHT METAR and TAF weather

Enter ICAO airport designator
Station Type Date Time Source
KDHT METAR 2021/05/15 22:53 UTC NOAA

KDHT 152253Z AUTO 14015G25KT 10SM FEW070 27/12 A2988 RMK AO2 PK WND 15026/2156 SLP068 T02720117


Station Type Date Time Source
KDHT Decoded METAR 2021/05/15 22:53 UTC NOAA

DALHART MUNICIPAL AIRPORT, TX, United States (KDHT) 36-01N 102-33W 1217M
May 15, 2021 - 06:53 PM EDT / 2021.05.15 2253 UTC
Wind: from the SE (140 degrees) at 17 MPH (15 KT) gusting to 29 MPH (25 KT):0
Visibility: 10 mile(s):0
Sky conditions: mostly clear
Temperature: 81.0 F (27.2 C)
Dew Point: 53.1 F (11.7 C)
Relative Humidity: 38%
Pressure (altimeter): 29.88 in. Hg (1011 hPa)
ob: KDHT 152253Z AUTO 14015G25KT 10SM FEW070 27/12 A2988 RMK AO2 PK WND 15026/2156 SLP068 T02720117
cycle: 23

Station Type Date Time Source
KDHT TAF 2021/05/15 18:42 UTC NOAA

TAF KDHT 151739Z 1518/1618 16008KT P6SM SKC
FM160000 16015G23KT P6SM OVC090
TEMPO 1600/1604 4SM -TSRA OVC025CB
FM160900 20005KT P6SM OVC200

Example: see airport list